Kimberley, South Africa
Current Conditions -  °F | °C
As of 11:00 PM on Thursday 20 Nov 2014 (Local Time) from FABL Reporting Station
NA  
Wind Chill: 57°   Ceiling: NA
Heat Index: 57°   Visibility: NA
Dew Point: 39°   Wind: 0mph
Humidity: 51%   Direction: NA
Pressure: 30.03"   Gusts: NA
Location:  28.75°S, 24.77°E
Report Text: FABL 202100Z AUTO 00000KT //// // ////// 14/04 Q1017
Loading
Personal Weather Stations






























Interactive Weather Map New forecast layout! Learn more

10-Day Weather Forecast

Advertisements
Track Severe Weather on mobile